Time;durP1;ratioP1;P1;durP2;ratioP2;P2;SDS_P1;SDS_P2;PMS_P1;PMS_P2;Temp;Humidity;BMP_temperature;BMP_pressure;BME280_temperature;BME280_humidity;BME280_pressure;Samples;Min_cycle;Max_cycle;Signal;HPM_P1;HPM_P2
2023/09/01 00:00:31;;;;;;;4.57;2.70;;;15.00;99.90;;;;;;6337773;22;20392;-58
2023/09/01 00:02:58;;;;;;;3.73;2.93;;;15.00;99.90;;;;;;6338425;22;20150;-56
2023/09/01 00:05:23;;;;;;;3.80;2.70;;;15.00;99.90;;;;;;6338995;22;20162;-58
2023/09/01 00:07:49;;;;;;;3.10;2.60;;;15.00;99.90;;;;;;6340775;22;20358;-58
2023/09/01 00:10:15;;;;;;;3.03;2.67;;;15.10;99.90;;;;;;6342512;22;20179;-58
2023/09/01 00:12:42;;;;;;;3.70;2.90;;;15.10;99.90;;;;;;6342416;22;20155;-57
2023/09/01 00:15:09;;;;;;;3.50;2.90;;;15.00;99.90;;;;;;6342546;22;20230;-57
2023/09/01 00:17:35;;;;;;;3.80;2.87;;;15.00;99.90;;;;;;6342580;22;20652;-58
2023/09/01 00:20:00;;;;;;;3.63;2.77;;;15.00;99.90;;;;;;6314118;22;20365;-59
2023/09/01 00:22:26;;;;;;;2.57;2.30;;;15.00;99.90;;;;;;6342440;22;20147;-58
2023/09/01 00:24:52;;;;;;;4.00;2.93;;;15.00;99.90;;;;;;6341402;22;20518;-59
2023/09/01 00:27:18;;;;;;;3.33;3.00;;;15.00;99.90;;;;;;6341675;22;20159;-59
2023/09/01 00:29:43;;;;;;;3.50;3.03;;;14.90;99.90;;;;;;6341770;22;20461;-57
2023/09/01 00:32:09;;;;;;;5.07;2.80;;;14.90;99.90;;;;;;6341313;22;20135;-58
2023/09/01 00:34:34;;;;;;;3.90;2.47;;;15.00;99.90;;;;;;6341466;22;20462;-59
2023/09/01 00:37:00;;;;;;;4.50;3.40;;;14.90;99.90;;;;;;6342660;22;20154;-58
2023/09/01 00:39:25;;;;;;;4.00;3.07;;;14.90;99.90;;;;;;6341166;22;20191;-59
2023/09/01 00:41:51;;;;;;;3.97;2.60;;;14.90;99.90;;;;;;6342873;22;20151;-59
2023/09/01 00:44:17;;;;;;;4.20;3.00;;;14.90;99.90;;;;;;6341742;22;20151;-58
2023/09/01 00:46:46;;;;;;;7.60;3.57;;;14.90;99.90;;;;;;6342375;22;20154;-59
2023/09/01 00:49:13;;;;;;;3.80;3.50;;;14.80;99.90;;;;;;6341900;22;20772;-58
2023/09/01 00:51:39;;;;;;;4.07;3.10;;;14.80;99.90;;;;;;6340651;22;20484;-58
2023/09/01 00:54:05;;;;;;;3.90;2.80;;;14.80;99.90;;;;;;6341308;22;20677;-58
2023/09/01 00:56:31;;;;;;;3.30;2.97;;;14.80;99.90;;;;;;6340666;22;20759;-59
2023/09/01 00:58:56;;;;;;;4.73;3.37;;;14.80;99.90;;;;;;6313602;22;20365;-59
2023/09/01 01:01:22;;;;;;;3.60;2.93;;;14.80;99.90;;;;;;6340226;22;20366;-58
2023/09/01 01:03:51;;;;;;;5.17;3.30;;;14.90;99.90;;;;;;6341678;22;20148;-56
2023/09/01 01:06:45;;;;;;;7.47;4.43;;;14.90;99.90;;;;;;6314938;22;20151;-57
2023/09/01 01:09:20;;;;;;;4.10;3.43;;;14.90;99.90;;;;;;6313413;22;20812;-56
2023/09/01 01:12:05;;;;;;;7.90;3.47;;;14.90;99.90;;;;;;6341358;22;20448;-58
2023/09/01 01:14:47;;;;;;;3.50;3.07;;;14.90;99.90;;;;;;6341871;22;20404;-59
2023/09/01 01:17:14;;;;;;;3.17;2.70;;;15.00;99.90;;;;;;6341055;22;20385;-59
2023/09/01 01:20:10;;;;;;;3.57;3.27;;;15.00;99.90;;;;;;6341242;22;20833;-59
2023/09/01 01:23:07;;;;;;;5.50;3.20;;;15.00;99.90;;;;;;6315893;22;20366;-59
2023/09/01 01:25:32;;;;;;;5.43;3.10;;;15.10;99.90;;;;;;6313349;22;20456;-56
2023/09/01 01:28:06;;;;;;;4.23;2.50;;;15.10;99.90;;;;;;6340994;22;20388;-59
2023/09/01 01:30:32;;;;;;;3.03;2.70;;;15.10;99.90;;;;;;6341449;22;20178;-58
2023/09/01 01:39:25;;;;;;;4.63;2.93;;;15.30;99.90;;;;;;6340217;22;20440;-58
2023/09/01 01:41:55;;;;;;;5.80;2.60;;;15.40;99.90;;;;;;6341940;22;20377;-57
2023/09/01 01:44:30;;;;;;;6.63;3.80;;;15.40;99.90;;;;;;6340818;22;20774;-57
2023/09/01 01:46:56;;;;;;;5.53;3.57;;;15.40;99.90;;;;;;6312970;22;20452;-58
2023/09/01 01:49:22;;;;;;;3.30;2.60;;;15.40;99.90;;;;;;6341141;22;20408;-58
2023/09/01 01:51:47;;;;;;;3.20;2.50;;;15.40;99.90;;;;;;6341146;22;20813;-58
2023/09/01 01:54:13;;;;;;;4.10;2.70;;;15.40;99.90;;;;;;6341231;22;20151;-57
2023/09/01 01:56:38;;;;;;;4.30;2.63;;;15.50;99.90;;;;;;6341202;22;20564;-58
2023/09/01 01:59:04;;;;;;;4.43;3.20;;;15.40;99.90;;;;;;6341396;22;20368;-59
2023/09/01 02:01:33;;;;;;;3.30;2.57;;;15.40;99.90;;;;;;6341045;22;20166;-58
2023/09/01 02:03:58;;;;;;;3.93;2.63;;;15.40;1.00;;;;;;6313055;22;20381;-58
2023/09/01 02:06:24;;;;;;;5.03;3.23;;;15.40;1.00;;;;;;6339900;22;20865;-57
2023/09/01 02:08:50;;;;;;;2.80;2.33;;;15.50;1.00;;;;;;6341275;22;20174;-58
2023/09/01 02:11:16;;;;;;;3.40;2.60;;;15.40;1.00;;;;;;6340560;22;20412;-58
2023/09/01 02:13:43;;;;;;;3.30;2.60;;;15.40;1.00;;;;;;6340759;22;20127;-58
2023/09/01 02:16:52;;;;;;;3.40;2.60;;;15.40;1.00;;;;;;6342414;22;20365;-59
2023/09/01 02:19:18;;;;;;;5.40;3.20;;;15.40;1.00;;;;;;6341386;22;20774;-59
2023/09/01 02:21:45;;;;;;;3.40;2.43;;;15.40;1.00;;;;;;6340717;22;20424;-57
2023/09/01 02:24:10;;;;;;;3.37;2.30;;;15.40;1.00;;;;;;6341123;22;20151;-57
2023/09/01 02:26:36;;;;;;;2.40;2.20;;;15.50;1.00;;;;;;6312392;22;20500;-58
2023/09/01 02:29:05;;;;;;;3.27;2.43;;;15.50;1.00;;;;;;6339351;22;20441;-58
2023/09/01 02:31:30;;;;;;;3.33;2.47;;;15.50;1.00;;;;;;6339886;22;20213;-59
2023/09/01 02:33:56;;;;;;;6.10;2.67;;;15.50;1.00;;;;;;6339486;22;20805;-58
2023/09/01 02:36:25;;;;;;;2.60;2.30;;;15.50;1.00;;;;;;6339628;22;20288;-57
2023/09/01 02:38:52;;;;;;;3.60;2.70;;;15.40;1.00;;;;;;6338811;22;20601;-58
2023/09/01 02:41:19;;;;;;;2.40;2.20;;;15.50;1.00;;;;;;6339842;22;20474;-59
2023/09/01 02:43:45;;;;;;;4.60;2.63;;;15.50;1.00;;;;;;6339248;22;20358;-56
2023/09/01 02:46:12;;;;;;;2.93;2.60;;;15.50;1.00;;;;;;6339285;22;20988;-59
2023/09/01 02:48:37;;;;;;;5.00;2.53;;;15.50;1.00;;;;;;6339885;22;20451;-57
2023/09/01 02:51:04;;;;;;;3.47;2.50;;;15.50;1.00;;;;;;6339859;22;20797;-57
2023/09/01 02:53:31;;;;;;;3.90;2.63;;;15.40;1.00;;;;;;6339932;22;20154;-58
2023/09/01 02:55:59;;;;;;;7.73;3.17;;;15.40;1.00;;;;;;6339510;22;20729;-56
2023/09/01 02:58:25;;;;;;;4.03;2.37;;;15.40;1.00;;;;;;6340676;22;20735;-58
2023/09/01 03:00:51;;;;;;;4.10;2.93;;;15.40;3.20;;;;;;6340662;22;20381;-59
2023/09/01 03:03:19;;;;;;;5.70;2.90;;;15.50;1.00;;;;;;6340341;22;20389;-57
2023/09/01 03:05:46;;;;;;;3.10;2.70;;;15.50;1.00;;;;;;6340324;22;20492;-59
2023/09/01 03:08:12;;;;;;;3.70;2.93;;;15.40;3.40;;;;;;6340124;22;20354;-58
2023/09/01 03:10:38;;;;;;;4.63;2.57;;;15.40;19.50;;;;;;6312454;22;20455;-59
2023/09/01 03:13:04;;;;;;;3.23;2.77;;;15.40;18.40;;;;;;6340811;22;20414;-57
2023/09/01 03:15:30;;;;;;;4.07;2.47;;;15.50;15.10;;;;;;6341382;22;20483;-57
2023/09/01 03:17:56;;;;;;;4.47;2.80;;;15.50;1.80;;;;;;6340463;22;20399;-58
2023/09/01 03:20:23;;;;;;;4.53;2.90;;;15.50;1.00;;;;;;6339292;22;20793;-58
2023/09/01 03:22:49;;;;;;;3.40;2.70;;;15.50;15.30;;;;;;6337938;22;20132;-58
2023/09/01 03:25:16;;;;;;;4.87;2.37;;;15.50;4.80;;;;;;6339793;22;20803;-57
2023/09/01 03:27:41;;;;;;;4.33;3.00;;;15.50;1.00;;;;;;6339039;22;20185;-58
2023/09/01 03:30:07;;;;;;;3.60;3.03;;;15.50;1.00;;;;;;6339591;22;20436;-59
2023/09/01 03:32:33;;;;;;;4.17;2.53;;;15.50;1.00;;;;;;6337239;22;20223;-61
2023/09/01 03:34:59;;;;;;;3.37;2.73;;;15.60;6.30;;;;;;6338401;22;20615;-58
2023/09/01 03:37:25;;;;;;;6.47;2.40;;;15.50;19.50;;;;;;6338231;22;20363;-57
2023/09/01 03:40:41;;;;;;;5.23;2.60;;;15.50;25.50;;;;;;6338291;22;20480;-58
2023/09/01 03:43:07;;;;;;;3.07;2.37;;;15.50;43.40;;;;;;6311458;22;20404;-57
2023/09/01 03:45:33;;;;;;;3.73;2.60;;;15.50;46.60;;;;;;6338893;22;20467;-56
2023/09/01 03:47:59;;;;;;;4.00;2.60;;;15.50;53.50;;;;;;6312735;22;20388;-59
2023/09/01 03:50:24;;;;;;;4.30;2.40;;;15.50;61.90;;;;;;6340542;22;20436;-58
2023/09/01 03:52:50;;;;;;;4.03;2.57;;;15.50;51.90;;;;;;6341153;22;20423;-58
2023/09/01 03:55:15;;;;;;;4.30;3.07;;;15.60;35.50;;;;;;6341583;22;20143;-58
2023/09/01 03:57:43;;;;;;;3.03;2.30;;;15.60;15.50;;;;;;6342066;22;20147;-58
2023/09/01 04:00:11;;;;;;;3.93;2.60;;;15.70;2.60;;;;;;6341647;22;20154;-58
2023/09/01 04:02:37;;;;;;;4.60;2.80;;;15.70;1.00;;;;;;6340797;22;20637;-59
2023/09/01 04:05:03;;;;;;;5.07;3.13;;;15.70;1.00;;;;;;6340904;22;20397;-58
2023/09/01 04:07:29;;;;;;;2.80;2.10;;;15.70;15.90;;;;;;6341980;22;20139;-58
2023/09/01 04:09:56;;;;;;;4.30;2.50;;;15.70;5.80;;;;;;6340311;22;20486;-59
2023/09/01 04:12:22;;;;;;;2.47;2.13;;;15.70;12.50;;;;;;6338965;22;20392;-57
2023/09/01 04:14:47;;;;;;;2.73;1.97;;;15.60;18.20;;;;;;6339071;22;20381;-58
2023/09/01 04:17:13;;;;;;;3.40;2.63;;;15.70;13.90;;;;;;6339420;22;20156;-58
2023/09/01 04:19:39;;;;;;;3.93;2.50;;;15.60;53.30;;;;;;6339402;22;20131;-59
2023/09/01 04:22:04;;;;;;;3.17;2.50;;;15.60;41.30;;;;;;6342132;22;20238;-56
2023/09/01 04:24:30;;;;;;;3.23;2.27;;;15.60;53.30;;;;;;6341537;22;20178;-58
2023/09/01 04:26:56;;;;;;;4.17;2.13;;;15.50;85.80;;;;;;6341380;22;20147;-56
2023/09/01 04:29:21;;;;;;;3.60;2.27;;;15.60;99.90;;;;;;6340440;22;20207;-59
2023/09/01 04:31:48;;;;;;;4.50;2.40;;;15.60;99.90;;;;;;6340716;22;20138;-58
2023/09/01 04:34:14;;;;;;;4.40;2.23;;;15.50;99.90;;;;;;6340920;22;20508;-58
2023/09/01 04:36:40;;;;;;;4.40;2.30;;;15.60;99.90;;;;;;6339664;22;20529;-57
2023/09/01 04:39:05;;;;;;;3.33;2.00;;;15.50;99.90;;;;;;6339539;22;20827;-58
2023/09/01 04:41:34;;;;;;;3.63;2.60;;;15.50;99.90;;;;;;6339581;22;20461;-58
2023/09/01 04:43:59;;;;;;;3.43;2.40;;;15.50;99.90;;;;;;6339871;22;20128;-57
2023/09/01 04:46:25;;;;;;;4.20;2.50;;;15.50;99.90;;;;;;6340346;22;20369;-57
2023/09/01 04:48:51;;;;;;;3.97;2.53;;;15.50;99.90;;;;;;6311105;22;20178;-57
2023/09/01 04:51:16;;;;;;;3.70;2.13;;;15.50;99.90;;;;;;6339269;22;20148;-59
2023/09/01 04:53:42;;;;;;;2.10;1.87;;;15.50;99.90;;;;;;6339937;22;20178;-58
2023/09/01 04:56:08;;;;;;;3.07;2.30;;;15.50;99.90;;;;;;6340002;22;20132;-58
2023/09/01 04:58:33;;;;;;;2.47;1.80;;;15.50;99.90;;;;;;6312117;22;20186;-58
2023/09/01 05:00:59;;;;;;;4.20;2.70;;;15.50;99.90;;;;;;6339559;22;20143;-58
2023/09/01 05:03:26;;;;;;;2.43;2.00;;;15.50;99.90;;;;;;6339120;22;20174;-59
2023/09/01 05:05:51;;;;;;;4.23;2.20;;;15.50;99.90;;;;;;6339076;22;20143;-57
2023/09/01 05:08:17;;;;;;;5.17;2.47;;;15.60;99.90;;;;;;6338637;22;20393;-58
2023/09/01 05:10:43;;;;;;;4.73;2.50;;;15.60;99.90;;;;;;6337938;22;20167;-59
2023/09/01 05:13:09;;;;;;;2.30;2.10;;;15.60;99.90;;;;;;6339004;22;20416;-58
2023/09/01 05:15:35;;;;;;;2.40;2.00;;;15.70;99.90;;;;;;6338719;22;20185;-59
2023/09/01 05:18:01;;;;;;;2.70;2.27;;;15.70;99.90;;;;;;6339356;22;20158;-59
2023/09/01 05:20:26;;;;;;;5.43;2.33;;;15.70;99.90;;;;;;6339328;22;20166;-59
2023/09/01 05:22:52;;;;;;;2.53;1.87;;;15.70;99.90;;;;;;6339962;22;20389;-59
2023/09/01 05:25:18;;;;;;;3.70;2.03;;;15.80;99.90;;;;;;6340999;22;20147;-60
2023/09/01 05:27:44;;;;;;;1.93;1.60;;;15.80;99.90;;;;;;6339086;22;20534;-59
2023/09/01 05:30:12;;;;;;;2.43;1.63;;;15.80;99.90;;;;;;6338075;22;20175;-59
2023/09/01 05:32:38;;;;;;;4.00;2.03;;;15.80;99.90;;;;;;6338355;22;20384;-59
2023/09/01 05:35:05;;;;;;;3.30;2.20;;;15.80;99.90;;;;;;6337932;22;20390;-58
2023/09/01 05:37:31;;;;;;;5.70;2.43;;;15.80;99.90;;;;;;6337811;22;20349;-59
2023/09/01 05:39:56;;;;;;;2.60;2.00;;;15.90;99.90;;;;;;6336103;22;20471;-59
2023/09/01 05:42:22;;;;;;;3.30;2.10;;;15.80;99.90;;;;;;6337348;22;20246;-57
2023/09/01 05:44:48;;;;;;;2.77;1.93;;;15.80;99.90;;;;;;6337516;22;20147;-59
2023/09/01 05:47:13;;;;;;;1.97;1.70;;;15.80;99.90;;;;;;6336636;22;20242;-58
2023/09/01 05:49:39;;;;;;;2.10;1.73;;;15.80;99.90;;;;;;6338007;22;20217;-59
2023/09/01 05:52:05;;;;;;;4.00;2.00;;;15.90;99.90;;;;;;6338036;22;20569;-58
2023/09/01 05:54:31;;;;;;;1.83;1.60;;;15.90;99.90;;;;;;6336898;22;20382;-57
2023/09/01 05:56:56;;;;;;;2.53;2.33;;;15.90;99.90;;;;;;6335872;22;20273;-57
2023/09/01 05:59:22;;;;;;;1.93;1.50;;;15.90;1.00;;;;;;6336110;22;20173;-57
2023/09/01 06:01:48;;;;;;;2.90;1.93;;;15.90;1.00;;;;;;6308484;22;20155;-58
2023/09/01 06:04:14;;;;;;;2.37;1.97;;;15.80;1.00;;;;;;6335287;22;20385;-56
2023/09/01 06:06:42;;;;;;;2.43;1.90;;;15.80;1.00;;;;;;6337124;22;20207;-57
2023/09/01 06:09:08;;;;;;;4.77;1.80;;;15.80;1.00;;;;;;6338509;22;20239;-57
2023/09/01 06:11:35;;;;;;;2.07;1.87;;;15.70;1.00;;;;;;6337255;22;20467;-58
2023/09/01 06:14:01;;;;;;;5.93;2.20;;;15.70;1.00;;;;;;6336545;22;20277;-57
2023/09/01 06:16:27;;;;;;;2.63;2.23;;;15.70;1.00;;;;;;6338034;22;20627;-56
2023/09/01 06:18:54;;;;;;;3.10;2.17;;;15.70;1.00;;;;;;6338505;22;20174;-52
2023/09/01 06:21:20;;;;;;;3.33;2.33;;;15.60;1.00;;;;;;6337209;22;20385;-53
2023/09/01 06:23:46;;;;;;;2.43;2.00;;;15.60;1.00;;;;;;6337589;22;20998;-57
2023/09/01 06:26:17;;;;;;;2.60;2.07;;;15.60;1.00;;;;;;6337759;22;20135;-56
2023/09/01 06:28:44;;;;;;;8.63;2.70;;;15.60;1.00;;;;;;6336787;22;20427;-57
2023/09/01 06:31:09;;;;;;;10.13;2.83;;;15.70;1.00;;;;;;6338531;22;20377;-58
2023/09/01 06:33:36;;;;;;;4.57;2.10;;;15.80;1.00;;;;;;6338842;22;20416;-56
2023/09/01 06:36:02;;;;;;;3.13;1.90;;;15.80;1.00;;;;;;6338639;22;20182;-56
2023/09/01 06:38:28;;;;;;;3.07;2.57;;;15.90;1.00;;;;;;6336479;22;20460;-54
2023/09/01 06:40:54;;;;;;;2.10;1.70;;;15.90;1.00;;;;;;6335947;22;20741;-55
2023/09/01 06:43:19;;;;;;;2.50;1.77;;;15.90;1.00;;;;;;6336859;22;20134;-55
2023/09/01 06:45:45;;;;;;;4.43;2.37;;;15.90;1.00;;;;;;6336243;22;20147;-56
2023/09/01 06:48:11;;;;;;;3.17;1.80;;;16.00;1.00;;;;;;6337081;22;20162;-55
2023/09/01 06:50:39;;;;;;;2.07;1.50;;;16.10;1.00;;;;;;6336295;22;20424;-56
2023/09/01 06:53:05;;;;;;;2.00;1.60;;;16.30;1.00;;;;;;6336251;22;20132;-54
2023/09/01 06:55:31;;;;;;;1.47;1.37;;;16.40;1.00;;;;;;6308333;22;20442;-56
2023/09/01 06:57:56;;;;;;;2.47;1.97;;;16.60;1.00;;;;;;6336503;22;20469;-56
2023/09/01 07:00:22;;;;;;;5.60;2.00;;;16.80;1.00;;;;;;6336535;22;20158;-56
2023/09/01 07:02:48;;;;;;;2.83;1.53;;;16.90;1.00;;;;;;6336680;22;20147;-55
2023/09/01 07:05:16;;;;;;;4.47;2.27;;;17.10;1.00;;;;;;6337478;22;20529;-56
2023/09/01 07:07:41;;;;;;;2.17;1.50;;;17.00;1.00;;;;;;6339395;22;20162;-54
2023/09/01 07:10:07;;;;;;;2.67;1.63;;;17.00;1.00;;;;;;6338905;22;20810;-56
2023/09/01 07:12:33;;;;;;;1.80;1.30;;;17.00;1.00;;;;;;6338383;22;20239;-54
2023/09/01 07:14:59;;;;;;;2.37;1.37;;;17.00;1.00;;;;;;6338839;22;20415;-57
2023/09/01 07:17:24;;;;;;;2.30;1.60;;;17.00;1.00;;;;;;6340740;22;20151;-57
2023/09/01 07:19:50;;;;;;;2.40;1.70;;;17.00;1.00;;;;;;6339323;22;20151;-58
2023/09/01 07:22:16;;;;;;;1.73;1.40;;;17.00;1.00;;;;;;6312157;22;20147;-57
2023/09/01 07:24:42;;;;;;;1.63;1.30;;;17.10;99.90;;;;;;6337586;22;20385;-57
2023/09/01 07:27:07;;;;;;;2.27;1.50;;;17.30;1.00;;;;;;6339498;22;20160;-58
2023/09/01 07:29:34;;;;;;;2.13;1.20;;;17.60;99.90;;;;;;6338899;22;20258;-58
2023/09/01 07:31:59;;;;;;;3.40;1.60;;;17.90;99.90;;;;;;6338656;22;20127;-57
2023/09/01 07:34:26;;;;;;;2.03;1.33;;;18.30;99.90;;;;;;6339026;22;20728;-55
2023/09/01 07:36:52;;;;;;;6.43;1.70;;;18.70;99.90;;;;;;6340386;22;20507;-57
2023/09/01 07:39:17;;;;;;;4.33;1.50;;;19.00;1.00;;;;;;6338948;22;20436;-57
2023/09/01 07:41:43;;;;;;;2.90;1.57;;;19.10;1.00;;;;;;6340647;22;20226;-58
2023/09/01 07:44:09;;;;;;;2.70;1.20;;;19.30;1.00;;;;;;6340054;22;20136;-58
2023/09/01 07:46:34;;;;;;;2.80;1.47;;;19.40;1.00;;;;;;6340975;22;20151;-58
2023/09/01 07:49:01;;;;;;;1.63;1.00;;;19.60;1.00;;;;;;6341044;22;20182;-57
2023/09/01 07:51:26;;;;;;;1.33;0.90;;;19.40;99.90;;;;;;6313463;22;20611;-57
2023/09/01 07:53:54;;;;;;;1.70;1.17;;;19.10;1.00;;;;;;6340172;22;20377;-57
2023/09/01 07:56:20;;;;;;;1.90;1.00;;;19.20;1.00;;;;;;6338465;22;20247;-57
2023/09/01 07:58:46;;;;;;;3.07;1.27;;;19.20;1.00;;;;;;6338864;22;20448;-63
2023/09/01 08:01:11;;;;;;;1.37;0.90;;;19.10;1.00;;;;;;6337390;22;20870;-57
2023/09/01 08:03:37;;;;;;;1.37;1.00;;;19.50;1.00;;;;;;6310465;22;20447;-56
2023/09/01 08:06:04;;;;;;;4.07;1.33;;;19.80;1.00;;;;;;6337208;22;20579;-57
2023/09/01 08:08:30;;;;;;;1.87;1.23;;;20.00;99.90;;;;;;6337131;22;20158;-58
2023/09/01 08:10:55;;;;;;;4.97;1.23;;;20.00;99.90;;;;;;6335481;22;20803;-58
2023/09/01 08:13:22;;;;;;;1.70;1.10;;;20.30;1.00;;;;;;6337622;22;20354;-58
2023/09/01 08:15:48;;;;;;;4.00;1.50;;;20.30;99.90;;;;;;6338353;22;20185;-59
2023/09/01 08:18:13;;;;;;;2.30;1.27;;;20.20;1.00;;;;;;6311487;22;20381;-58
2023/09/01 08:20:40;;;;;;;2.23;1.10;;;20.20;1.00;;;;;;6339403;22;20729;-59
2023/09/01 08:23:06;;;;;;;3.00;1.20;;;20.60;99.90;;;;;;6339033;22;20524;-59
2023/09/01 08:25:35;;;;;;;2.07;1.20;;;21.10;1.00;;;;;;6339077;22;20366;-58
2023/09/01 08:28:00;;;;;;;1.50;1.03;;;21.20;99.90;;;;;;6340326;22;20143;-57
2023/09/01 08:30:26;;;;;;;3.97;1.40;;;21.50;1.00;;;;;;6311276;22;20783;-58
2023/09/01 08:32:53;;;;;;;1.60;1.20;;;21.30;1.00;;;;;;6339343;22;20170;-58
2023/09/01 08:35:19;;;;;;;1.90;1.07;;;21.10;1.00;;;;;;6338588;22;20381;-57
2023/09/01 08:37:45;;;;;;;1.40;0.90;;;20.90;96.90;;;;;;6338510;22;20657;-58
2023/09/01 08:40:10;;;;;;;3.93;1.97;;;20.60;99.90;;;;;;6337752;22;20195;-57
2023/09/01 08:42:47;;;;;;;12.93;2.80;;;21.00;1.00;;;;;;6337222;22;20160;-58
2023/09/01 08:45:17;;;;;;;1.90;1.20;;;21.40;1.00;;;;;;6337311;22;20695;-59
2023/09/01 08:47:46;;;;;;;2.90;1.27;;;21.80;99.90;;;;;;6337639;22;20420;-59
2023/09/01 08:50:13;;;;;;;2.60;1.87;;;21.50;99.90;;;;;;6338056;22;20408;-59
2023/09/01 08:52:44;;;;;;;2.53;1.47;;;21.30;99.90;;;;;;6337979;22;20384;-56
2023/09/01 08:55:14;;;;;;;1.77;1.60;;;21.70;95.80;;;;;;6338569;22;20446;-59
2023/09/01 09:03:27;;;;;;;2.10;1.60;;;22.70;91.60;;;;;;6337872;22;20856;-59
2023/09/01 09:05:53;;;;;;;2.00;1.33;;;23.60;1.00;;;;;;6339450;22;20393;-59
2023/09/01 09:08:20;;;;;;;2.90;1.73;;;24.70;1.00;;;;;;6340227;22;20353;-58
2023/09/01 09:10:48;;;;;;;2.20;1.43;;;24.40;1.00;;;;;;6339876;22;20428;-59
2023/09/01 09:13:28;;;;;;;2.70;1.73;;;24.40;1.00;;;;;;6339065;22;20388;-59
2023/09/01 09:16:13;;;;;;;1.90;1.47;;;23.70;1.00;;;;;;6311466;22;20374;-59
2023/09/01 09:18:41;;;;;;;3.03;1.50;;;23.40;1.00;;;;;;6339042;22;20376;-59
2023/09/01 09:21:29;;;;;;;2.40;1.60;;;23.20;1.00;;;;;;6340531;22;20361;-58
2023/09/01 09:23:56;;;;;;;1.87;1.53;;;22.90;1.00;;;;;;6337759;22;20392;-58
2023/09/01 09:26:29;;;;;;;1.80;1.27;;;23.00;1.00;;;;;;6338405;22;20475;-57
2023/09/01 09:29:06;;;;;;;3.13;1.70;;;22.70;1.00;;;;;;6339706;22;20421;-59
2023/09/01 09:31:44;;;;;;;3.30;1.67;;;22.50;16.60;;;;;;6336899;22;20409;-59
2023/09/01 09:34:14;;;;;;;2.80;1.60;;;22.00;99.90;;;;;;6338166;22;20381;-57
2023/09/01 09:36:40;;;;;;;2.93;1.60;;;21.80;99.90;;;;;;6338259;22;20757;-56
2023/09/01 09:39:09;;;;;;;1.90;1.60;;;21.40;99.90;;;;;;6337221;22;20354;-58
2023/09/01 09:41:47;;;;;;;2.27;1.33;;;21.30;99.90;;;;;;6310754;22;20197;-58
2023/09/01 09:44:20;;;;;;;2.40;1.50;;;21.20;36.80;;;;;;6337620;22;20434;-59
2023/09/01 09:46:46;;;;;;;3.03;1.37;;;21.20;99.90;;;;;;6310873;22;20389;-57
2023/09/01 09:49:15;;;;;;;2.13;1.50;;;20.90;99.90;;;;;;6310472;22;20417;-59
2023/09/01 09:51:42;;;;;;;1.67;1.33;;;20.80;1.00;;;;;;6336721;22;20385;-58
2023/09/01 09:54:10;;;;;;;1.50;1.20;;;20.80;99.90;;;;;;6336694;22;20362;-58
2023/09/01 09:56:38;;;;;;;2.63;1.80;;;20.90;1.00;;;;;;6337495;22;20393;-59
2023/09/01 09:59:04;;;;;;;2.23;1.63;;;21.10;99.90;;;;;;6338771;22;20408;-58
2023/09/01 10:01:31;;;;;;;2.17;1.60;;;21.00;99.90;;;;;;6339208;22;20390;-59
2023/09/01 10:03:58;;;;;;;2.13;1.40;;;21.10;99.90;;;;;;6310960;22;20436;-59
2023/09/01 10:06:24;;;;;;;1.53;1.30;;;21.20;1.00;;;;;;6311847;22;20476;-59
2023/09/01 10:08:51;;;;;;;2.30;1.80;;;21.30;1.00;;;;;;6337691;22;20361;-59
2023/09/01 10:11:22;;;;;;;1.97;1.53;;;21.60;99.90;;;;;;5112254;27;20597;-37
2023/09/01 10:13:48;;;;;;;2.27;1.47;;;21.90;99.90;;;;;;5110729;28;20429;-39
2023/09/01 10:16:14;;;;;;;3.13;2.10;;;21.90;10.60;;;;;;5110328;28;20179;-38
2023/09/01 10:18:43;;;;;;;2.07;1.83;;;22.00;1.00;;;;;;5109831;28;20413;-38
2023/09/01 10:21:09;;;;;;;2.90;1.90;;;22.30;1.00;;;;;;5111373;28;20203;-39
2023/09/01 10:23:35;;;;;;;2.27;1.73;;;22.30;99.90;;;;;;5111134;28;20721;-38
2023/09/01 10:26:16;;;;;;;4.37;1.93;;;21.90;1.00;;;;;;5112444;28;20179;-39
2023/09/01 10:29:01;;;;;;;3.30;2.23;;;21.80;1.00;;;;;;5112698;28;20172;-40
2023/09/01 10:31:28;;;;;;;4.83;2.00;;;21.90;1.00;;;;;;5112183;28;20414;-38
2023/09/01 10:34:13;;;;;;;3.40;1.90;;;22.30;99.90;;;;;;5112304;28;20450;-39
2023/09/01 10:36:41;;;;;;;1.97;1.37;;;22.30;99.90;;;;;;5113415;28;20413;-37
2023/09/01 10:39:19;;;;;;;3.70;2.00;;;22.30;99.90;;;;;;5110872;28;20425;-40
2023/09/01 10:41:58;;;;;;;4.70;2.37;;;22.70;97.70;;;;;;5109773;28;20904;-38
2023/09/01 10:44:44;;;;;;;3.23;2.23;;;22.70;1.00;;;;;;5108515;28;20397;-40
2023/09/01 10:47:38;;;;;;;2.87;1.90;;;22.90;28.80;;;;;;5107675;28;20739;-43
2023/09/01 10:50:06;;;;;;;5.93;2.10;;;22.90;1.00;;;;;;5106691;28;20477;-40
2023/09/01 10:52:32;;;;;;;1.80;1.50;;;22.90;1.00;;;;;;5109670;28;20505;-40
2023/09/01 10:55:02;;;;;;;1.77;1.40;;;22.80;1.00;;;;;;5108327;28;20512;-43
2023/09/01 10:57:43;;;;;;;2.37;1.90;;;22.30;1.00;;;;;;5112766;28;20553;-39
2023/09/01 11:00:31;;;;;;;1.80;1.60;;;22.10;29.70;;;;;;5111603;28;20488;-40
2023/09/01 11:03:32;;;;;;;2.80;1.73;;;22.10;99.90;;;;;;5110331;28;20715;-40
2023/09/01 11:06:04;;;;;;;1.93;1.43;;;22.10;1.00;;;;;;5109844;28;20393;-38
2023/09/01 11:08:31;;;;;;;3.30;1.60;;;22.30;19.80;;;;;;5109385;28;20528;-40
2023/09/01 11:11:08;;;;;;;1.60;1.03;;;22.80;1.00;;;;;;5107784;28;20549;-40
2023/09/01 11:13:33;;;;;;;2.20;1.50;;;23.20;1.00;;;;;;5107014;28;20417;-39
2023/09/01 11:16:07;;;;;;;1.50;1.10;;;23.40;1.00;;;;;;5107606;28;20406;-39
2023/09/01 11:18:33;;;;;;;1.60;1.30;;;23.70;99.90;;;;;;5106742;28;20405;-40
2023/09/01 11:21:00;;;;;;;4.93;1.93;;;24.00;99.90;;;;;;5103460;28;20581;-42
2023/09/01 11:23:27;;;;;;;2.00;1.30;;;24.50;99.90;;;;;;5093083;28;20275;-42
2023/09/01 11:25:57;;;;;;;1.90;1.47;;;24.80;99.90;;;;;;5096609;28;20567;-40
2023/09/01 11:28:26;;;;;;;2.77;1.60;;;24.80;99.90;;;;;;5094836;28;20665;-40
2023/09/01 11:30:57;;;;;;;1.80;1.40;;;25.60;99.90;;;;;;5095347;28;20644;-39
2023/09/01 11:33:23;;;;;;;2.40;1.90;;;27.10;29.90;;;;;;5093939;28;20456;-38
2023/09/01 11:36:03;;;;;;;1.60;1.40;;;27.90;1.00;;;;;;5094312;28;20432;-42
2023/09/01 11:38:28;;;;;;;2.07;1.57;;;27.70;1.00;;;;;;5094853;28;20421;-42
2023/09/01 11:40:54;;;;;;;1.80;1.40;;;27.00;1.00;;;;;;5094503;28;20869;-42
2023/09/01 11:49:07;;;;;;;2.60;1.20;;;26.60;1.00;;;;;;5104523;28;20485;-40
2023/09/01 11:51:37;;;;;;;4.70;1.60;;;28.10;1.00;;;;;;5115549;28;20200;-40
2023/09/01 11:54:03;;;;;;;4.20;1.37;;;29.50;1.00;;;;;;5096111;28;20177;-39
2023/09/01 11:56:29;;;;;;;2.57;1.47;;;30.90;1.00;;;;;;5093394;28;20429;-41
2023/09/01 11:58:57;;;;;;;2.53;1.50;;;30.80;1.00;;;;;;5096728;28;20430;-40
2023/09/01 12:01:24;;;;;;;2.67;1.70;;;30.50;1.00;;;;;;5098325;28;20441;-43
2023/09/01 12:03:52;;;;;;;1.97;1.27;;;31.80;1.00;;;;;;5093837;28;20843;-39
2023/09/01 12:06:22;;;;;;;3.67;1.60;;;30.10;1.00;;;;;;5095001;28;20434;-40
2023/09/01 12:08:49;;;;;;;2.27;1.50;;;29.20;1.00;;;;;;5094892;28;20408;-42
2023/09/01 12:11:15;;;;;;;2.47;1.63;;;29.10;1.00;;;;;;5074668;28;20465;-40
2023/09/01 12:13:44;;;;;;;2.13;1.63;;;29.10;1.00;;;;;;5094230;28;20436;-40
2023/09/01 12:16:22;;;;;;;1.90;1.40;;;29.50;1.00;;;;;;5095256;28;20414;-39
2023/09/01 12:18:48;;;;;;;1.70;1.33;;;29.60;1.00;;;;;;5094861;28;20976;-42
2023/09/01 12:21:15;;;;;;;2.53;1.60;;;29.40;1.00;;;;;;5092488;28;20429;-40
2023/09/01 12:23:45;;;;;;;2.33;1.67;;;28.30;1.00;;;;;;5092211;28;20418;-40
2023/09/01 12:26:12;;;;;;;2.17;1.43;;;28.40;1.00;;;;;;5094017;28;20799;-40
2023/09/01 12:28:39;;;;;;;1.97;1.40;;;28.40;1.00;;;;;;5093042;28;20551;-42
2023/09/01 12:31:06;;;;;;;2.83;1.60;;;27.30;1.00;;;;;;5093589;28;20872;-41
2023/09/01 12:33:32;;;;;;;3.30;2.23;;;26.50;1.00;;;;;;5093992;28;20855;-41
2023/09/01 12:35:58;;;;;;;2.30;1.37;;;26.40;1.00;;;;;;5096193;28;20497;-39
2023/09/01 12:38:24;;;;;;;3.60;1.57;;;26.80;1.00;;;;;;5096302;28;20195;-39
2023/09/01 12:40:50;;;;;;;1.67;1.40;;;26.90;1.00;;;;;;5096196;28;20839;-41
2023/09/01 12:43:16;;;;;;;1.73;1.53;;;26.70;1.00;;;;;;5094853;28;20458;-38
2023/09/01 12:45:42;;;;;;;1.37;1.17;;;26.70;1.00;;;;;;5093262;28;20180;-38
2023/09/01 12:48:08;;;;;;;2.80;1.77;;;26.50;1.00;;;;;;5094918;28;20279;-42
2023/09/01 12:50:34;;;;;;;2.20;1.60;;;26.00;1.00;;;;;;5094317;28;20550;-39
2023/09/01 12:53:00;;;;;;;1.70;1.30;;;25.70;1.00;;;;;;5095480;28;20426;-40
2023/09/01 12:55:26;;;;;;;2.00;1.60;;;25.80;1.00;;;;;;5094123;28;20484;-39
2023/09/01 12:57:52;;;;;;;2.97;1.60;;;25.80;1.00;;;;;;5094814;28;20558;-43
2023/09/01 13:00:18;;;;;;;1.87;1.40;;;25.80;1.00;;;;;;5094363;28;20862;-39
2023/09/01 13:02:44;;;;;;;2.17;1.50;;;26.00;1.00;;;;;;5096851;28;20419;-39
2023/09/01 13:05:11;;;;;;;2.50;1.70;;;26.10;1.00;;;;;;5093861;28;20868;-41
2023/09/01 13:07:38;;;;;;;2.27;1.77;;;26.30;1.00;;;;;;5092600;28;20441;-40
2023/09/01 13:10:04;;;;;;;2.43;1.40;;;27.00;1.00;;;;;;5091530;28;20503;-38
2023/09/01 13:12:29;;;;;;;2.33;1.37;;;26.80;1.00;;;;;;5092574;28;20705;-40
2023/09/01 13:14:59;;;;;;;2.50;1.60;;;26.60;1.00;;;;;;5093934;28;20410;-45